Time;durP1;ratioP1;P1;durP2;ratioP2;P2;SDS_P1;SDS_P2;PMS_P1;PMS_P2;Temp;Humidity;BMP_temperature;BMP_pressure;BME280_temperature;BME280_humidity;BME280_pressure;Samples;Min_cycle;Max_cycle;Signal;HPM_P1;HPM_P2
2022/04/08 00:02:00;;;;;;;2.13;1.00;;;14.20;46.30;;;-142.21;55.47;112049.66;5057900;28;20444;-75
2022/04/08 00:04:27;;;;;;;2.17;0.80;;;14.20;46.60;;;-142.21;55.35;112049.66;5061256;28;20487;-74
2022/04/08 00:06:54;;;;;;;3.00;1.40;;;14.20;47.20;;;-142.21;56.56;112049.66;5052096;28;20952;-74
2022/04/08 00:09:21;;;;;;;6.70;1.27;;;14.20;47.00;;;-142.21;59.36;112049.66;5051677;28;20548;-74
2022/04/08 00:11:49;;;;;;;4.00;1.27;;;14.20;47.70;;;-142.21;59.39;112049.66;5046481;28;21055;-74
2022/04/08 00:14:18;;;;;;;3.00;1.40;;;14.20;47.50;;;-142.21;59.83;112049.66;5046455;28;20440;-74
2022/04/08 00:16:45;;;;;;;2.90;1.17;;;14.20;47.70;;;-142.21;60.89;112049.66;5060779;28;20444;-75
2022/04/08 00:19:14;;;;;;;5.30;1.23;;;14.20;48.70;;;-142.21;59.99;112049.66;5052514;28;20448;-74
2022/04/08 00:21:41;;;;;;;2.53;1.23;;;14.10;47.70;;;-142.21;59.92;112049.66;5052426;28;20458;-75
2022/04/08 00:24:09;;;;;;;1.97;1.10;;;14.00;48.00;;;-142.21;60.04;112049.66;5057897;28;20488;-75
2022/04/08 00:26:36;;;;;;;1.73;1.00;;;14.10;48.10;;;-142.21;60.81;112049.66;5068666;28;20447;-74
2022/04/08 00:29:03;;;;;;;2.63;1.03;;;14.10;48.30;;;-142.21;60.52;112049.66;5054583;28;20457;-74
2022/04/08 00:31:30;;;;;;;3.70;1.27;;;14.00;49.00;;;-142.21;62.97;112049.66;5050090;28;20459;-74
2022/04/08 00:33:57;;;;;;;4.73;1.40;;;14.00;48.50;;;-142.21;62.36;112049.66;5052038;28;20451;-74
2022/04/08 00:36:26;;;;;;;3.07;1.30;;;14.00;48.50;;;-142.21;62.65;112049.66;5051719;28;20970;-75
2022/04/08 00:38:53;;;;;;;3.30;1.00;;;14.00;48.70;;;-142.21;62.11;112049.66;5048407;28;20540;-75
2022/04/08 00:41:20;;;;;;;1.73;1.13;;;14.00;48.80;;;-142.21;64.78;112049.66;5046680;28;21056;-74
2022/04/08 00:43:48;;;;;;;1.57;1.10;;;14.00;49.20;;;-142.21;63.81;112049.66;5048886;28;20480;-74
2022/04/08 00:46:15;;;;;;;6.40;1.40;;;14.00;49.00;;;-142.21;64.36;112049.66;5062261;28;20538;-74
2022/04/08 00:48:42;;;;;;;2.43;1.20;;;13.90;49.10;;;-142.21;63.50;112049.66;5066104;28;20451;-75
2022/04/08 00:51:11;;;;;;;3.03;1.20;;;13.90;48.90;;;-142.21;61.30;112049.66;5058700;28;20498;-74
2022/04/08 00:53:40;;;;;;;3.13;1.23;;;13.90;48.70;;;-142.21;61.72;112049.66;5056030;28;20444;-74
2022/04/08 00:56:08;;;;;;;4.07;1.30;;;13.80;48.50;;;-142.21;63.25;112049.66;5059822;28;20447;-75
2022/04/08 00:58:37;;;;;;;5.00;1.30;;;13.80;49.10;;;-142.21;62.20;112049.66;5061654;28;20548;-75
2022/04/08 01:01:06;;;;;;;4.77;1.30;;;13.80;49.10;;;-142.21;61.02;112049.66;5055491;28;20962;-74
2022/04/08 01:03:34;;;;;;;3.83;0.93;;;13.80;48.60;;;-142.21;59.49;112049.66;5051682;28;20476;-74
2022/04/08 01:06:01;;;;;;;2.17;0.93;;;13.80;48.20;;;-142.21;59.21;112049.66;5038389;28;20579;-74
2022/04/08 01:08:30;;;;;;;4.40;0.97;;;13.80;48.20;;;-142.21;59.07;112049.66;5034937;28;20456;-74
2022/04/08 01:10:59;;;;;;;5.20;1.40;;;13.80;48.30;;;-142.21;59.09;112049.66;5052831;28;20448;-74
2022/04/08 01:13:26;;;;;;;3.70;1.20;;;13.70;47.90;;;-142.21;57.24;112049.66;5067002;28;20490;-74
2022/04/08 01:15:53;;;;;;;2.57;1.20;;;13.70;47.50;;;-142.21;57.19;112049.66;5070535;28;20475;-74
2022/04/08 01:18:20;;;;;;;3.33;1.30;;;13.70;47.80;;;-142.21;55.74;112049.66;5055737;28;20809;-73
2022/04/08 01:20:48;;;;;;;2.13;1.30;;;13.70;47.30;;;-142.21;56.15;112049.66;5056916;28;20440;-74
2022/04/08 01:23:17;;;;;;;4.37;1.20;;;13.70;47.10;;;-142.21;56.80;112049.66;5054469;28;20454;-74
2022/04/08 01:25:46;;;;;;;4.27;1.03;;;13.80;47.30;;;-142.21;57.75;112049.66;5055356;28;20483;-73
2022/04/08 01:28:13;;;;;;;3.30;1.27;;;13.80;47.50;;;-142.21;58.30;112049.66;5062901;28;20447;-75
2022/04/08 01:30:40;;;;;;;5.07;1.33;;;13.80;47.70;;;-142.21;59.28;112049.66;5054784;28;20443;-74
2022/04/08 01:33:07;;;;;;;3.10;1.27;;;13.90;48.20;;;-142.21;60.49;112049.66;5062084;28;20458;-74
2022/04/08 01:35:34;;;;;;;3.83;1.43;;;13.90;48.40;;;-142.21;62.27;112049.66;5056507;28;20454;-74
2022/04/08 01:38:01;;;;;;;2.23;1.00;;;13.90;48.40;;;-142.21;63.49;112049.66;5055417;28;20806;-75
2022/04/08 01:40:29;;;;;;;3.83;1.30;;;14.00;48.70;;;-142.21;66.02;112049.66;5053898;28;20796;-74
2022/04/08 01:42:57;;;;;;;4.63;1.50;;;14.00;49.40;;;-142.21;67.75;112049.66;5055320;28;20444;-74
2022/04/08 01:45:24;;;;;;;5.20;1.47;;;14.00;49.60;;;-142.21;69.30;112049.66;5055486;28;20488;-74
2022/04/08 01:47:51;;;;;;;5.07;1.37;;;13.90;50.00;;;-142.21;69.54;112049.66;5055609;28;20447;-74
2022/04/08 01:50:20;;;;;;;4.37;1.30;;;13.90;50.10;;;-142.21;70.81;112049.66;5061189;28;20545;-74
2022/04/08 01:52:48;;;;;;;3.17;1.43;;;13.90;50.50;;;-142.21;70.77;112049.66;5053604;28;20538;-74
2022/04/08 01:55:16;;;;;;;2.73;1.30;;;13.80;50.40;;;-142.21;70.93;112049.66;5056064;28;20472;-74
2022/04/08 01:57:43;;;;;;;3.60;1.37;;;13.80;50.60;;;-142.21;71.53;112049.66;5071207;28;20446;-75
2022/04/08 02:00:13;;;;;;;3.73;1.40;;;13.80;50.60;;;-142.21;70.19;112049.66;5048026;28;20475;-74
2022/04/08 02:02:41;;;;;;;3.90;1.67;;;13.80;50.40;;;-142.21;69.99;112049.66;5053228;28;20448;-74
2022/04/08 02:05:10;;;;;;;3.27;1.40;;;13.80;50.40;;;-142.21;68.67;112049.66;5062608;28;20486;-74
2022/04/08 02:07:37;;;;;;;3.50;1.23;;;13.70;50.20;;;-142.21;68.72;112049.66;5066998;28;20447;-75
2022/04/08 02:10:05;;;;;;;1.87;1.17;;;13.70;50.20;;;-142.21;68.29;112049.66;5073344;28;20450;-75
2022/04/08 02:12:32;;;;;;;2.57;1.07;;;13.70;50.20;;;-142.21;67.17;112049.66;5053068;28;20479;-74
2022/04/08 02:14:59;;;;;;;2.83;1.33;;;13.70;50.20;;;-142.21;68.45;112049.66;5056592;28;20970;-75
2022/04/08 02:17:30;;;;;;;2.20;1.23;;;13.70;50.40;;;-142.21;68.53;112049.66;5053685;28;20804;-75
2022/04/08 02:19:58;;;;;;;3.10;1.17;;;13.70;50.30;;;-142.21;69.42;112049.66;5043300;28;20452;-74
2022/04/08 02:22:29;;;;;;;5.57;1.70;;;13.70;50.30;;;-142.21;69.23;112049.66;5053082;28;20455;-74
2022/04/08 02:24:57;;;;;;;3.03;1.17;;;13.70;50.30;;;-142.21;68.38;112049.66;5053306;28;20801;-74
2022/04/08 02:27:26;;;;;;;3.10;1.10;;;13.70;50.20;;;-142.21;68.19;112049.66;5045588;28;20445;-75
2022/04/08 02:29:53;;;;;;;4.50;1.30;;;13.70;50.20;;;-142.21;69.88;112049.66;5040624;28;21008;-74
2022/04/08 02:32:20;;;;;;;3.70;1.30;;;13.70;50.60;;;-142.21;68.67;112049.66;5047911;28;20449;-75
2022/04/08 02:34:50;;;;;;;4.87;1.27;;;13.60;50.90;;;-142.21;69.35;112049.66;5066465;28;20527;-75
2022/04/08 02:37:18;;;;;;;4.50;1.67;;;13.60;50.50;;;-142.21;69.13;112049.66;5053571;28;20982;-74
2022/04/08 02:39:45;;;;;;;3.20;1.30;;;13.60;50.40;;;-142.21;68.49;112049.66;5053378;28;20452;-74
2022/04/08 02:42:12;;;;;;;2.47;1.30;;;13.60;50.50;;;-142.21;68.67;112049.66;5047529;28;20456;-74
2022/04/08 02:44:39;;;;;;;3.17;1.10;;;13.60;50.50;;;-142.21;69.55;112049.66;5046434;28;20491;-74
2022/04/08 02:47:07;;;;;;;1.90;1.33;;;13.60;50.60;;;-142.21;70.94;112049.66;5052573;28;20482;-74
2022/04/08 02:49:34;;;;;;;3.47;1.03;;;13.50;50.70;;;-142.21;70.42;112049.66;5051088;28;20440;-74
2022/04/08 02:52:02;;;;;;;3.27;1.30;;;13.60;51.00;;;-142.21;71.06;112049.66;5043888;28;20449;-74
2022/04/08 02:54:29;;;;;;;2.90;1.20;;;13.60;51.00;;;-142.21;71.78;112049.66;5039324;28;20464;-75
2022/04/08 02:56:56;;;;;;;2.63;1.07;;;13.60;51.00;;;-142.21;72.04;112049.66;5052917;28;20444;-74
2022/04/08 02:59:24;;;;;;;1.97;1.13;;;13.60;51.00;;;-142.21;70.66;112049.66;5052130;28;20534;-74
2022/04/08 03:01:51;;;;;;;3.53;1.37;;;13.50;50.80;;;-142.21;72.11;112049.66;5042362;28;20805;-75
2022/04/08 03:04:18;;;;;;;4.93;1.40;;;13.50;51.10;;;-142.21;70.63;112049.66;5038808;28;20956;-74
2022/04/08 03:06:45;;;;;;;3.27;1.07;;;13.50;51.00;;;-142.21;71.49;112049.66;5044000;28;20445;-75
2022/04/08 03:09:13;;;;;;;4.10;1.17;;;13.50;51.00;;;-142.21;70.42;112049.66;5046139;28;20970;-74
2022/04/08 03:11:41;;;;;;;5.30;1.37;;;13.50;50.90;;;-142.21;71.24;112049.66;5044578;28;20498;-74
2022/04/08 03:14:08;;;;;;;3.97;1.30;;;13.40;51.10;;;-142.21;69.41;112049.66;5052390;28;20944;-73
2022/04/08 03:16:37;;;;;;;4.47;1.20;;;13.40;50.80;;;-142.21;70.11;112049.66;5053025;28;20531;-73
2022/04/08 03:19:04;;;;;;;4.27;1.77;;;13.30;50.80;;;-142.21;68.83;112049.66;5046035;28;20460;-74
2022/04/08 03:21:31;;;;;;;3.37;1.83;;;13.30;50.70;;;-142.21;70.50;112049.66;5052448;28;20815;-74
2022/04/08 03:23:59;;;;;;;3.17;1.50;;;13.40;51.00;;;-142.21;70.26;112049.66;5065630;28;20489;-74
2022/04/08 03:26:27;;;;;;;3.77;1.47;;;13.40;51.00;;;-142.21;70.14;112049.66;5059103;28;20570;-74
2022/04/08 03:28:54;;;;;;;2.60;1.23;;;13.40;51.40;;;-142.21;69.52;112049.66;5056087;28;20452;-74
2022/04/08 03:31:22;;;;;;;2.63;1.20;;;13.30;50.70;;;-142.21;69.65;112049.66;5065467;28;20957;-74
2022/04/08 03:33:49;;;;;;;4.50;1.87;;;13.30;50.80;;;-142.21;70.53;112049.66;5055169;28;20488;-75
2022/04/08 03:36:16;;;;;;;3.83;1.40;;;13.30;51.00;;;-142.21;71.25;112049.66;5059419;28;20589;-75
2022/04/08 03:38:43;;;;;;;3.67;1.50;;;13.40;51.10;;;-142.21;69.68;112049.66;5072614;28;20973;-74
2022/04/08 03:41:10;;;;;;;2.90;1.50;;;13.30;50.70;;;-142.21;69.55;112049.66;5054368;28;20467;-74
2022/04/08 03:43:39;;;;;;;3.47;1.40;;;13.30;50.90;;;-142.21;69.37;112049.66;5044563;28;20558;-73
2022/04/08 03:46:06;;;;;;;2.43;1.60;;;13.20;50.70;;;-142.21;69.33;112049.66;5069617;28;20582;-74
2022/04/08 03:48:33;;;;;;;4.40;1.30;;;13.20;50.80;;;-142.21;71.20;112049.66;5056984;28;20495;-75
2022/04/08 03:51:00;;;;;;;4.13;1.50;;;13.20;51.10;;;-142.21;70.09;112049.66;5059158;28;20894;-75
2022/04/08 03:53:27;;;;;;;5.03;1.50;;;13.10;50.90;;;-142.21;71.05;112049.66;5076594;28;20473;-75
2022/04/08 03:55:54;;;;;;;3.83;1.47;;;13.10;51.10;;;-142.21;69.32;112049.66;5067495;28;20444;-74
2022/04/08 03:58:21;;;;;;;7.23;1.40;;;13.10;50.70;;;-142.21;68.71;112049.66;5051545;28;20455;-74
2022/04/08 04:00:50;;;;;;;3.27;1.30;;;13.10;50.80;;;-142.21;69.99;112049.66;5058830;28;20444;-74
2022/04/08 04:03:17;;;;;;;3.37;1.47;;;13.10;51.00;;;-142.21;67.77;112049.66;5052474;28;20443;-75
2022/04/08 04:05:44;;;;;;;4.80;1.63;;;13.10;50.60;;;-142.21;67.51;112049.66;5055818;28;20487;-74
2022/04/08 04:08:15;;;;;;;5.70;1.83;;;13.10;50.60;;;-142.21;68.61;112049.66;5065001;28;20476;-74
2022/04/08 04:10:42;;;;;;;3.73;1.30;;;13.10;50.80;;;-142.21;69.32;112049.66;5053339;28;20460;-74
2022/04/08 04:13:09;;;;;;;3.20;1.40;;;13.10;50.70;;;-142.21;68.59;112049.66;5051734;28;20484;-75
2022/04/08 04:15:36;;;;;;;3.13;1.40;;;13.10;50.60;;;-142.21;68.72;112049.66;5056193;28;20440;-74
2022/04/08 04:18:05;;;;;;;2.87;1.40;;;13.10;50.60;;;-142.21;68.45;112049.66;5050754;28;20456;-75
2022/04/08 04:20:33;;;;;;;5.57;1.30;;;13.10;50.60;;;-142.21;69.10;112049.66;5045451;28;20445;-75
2022/04/08 04:23:01;;;;;;;6.17;1.80;;;13.10;50.70;;;-142.21;68.72;112049.66;5052555;28;20556;-74
2022/04/08 04:25:28;;;;;;;3.47;1.40;;;13.10;50.80;;;-142.21;69.44;112049.66;5051459;28;20842;-74
2022/04/08 04:27:55;;;;;;;2.90;1.70;;;13.10;50.80;;;-142.21;69.42;112049.66;5062717;28;20456;-74
2022/04/08 04:30:23;;;;;;;4.13;1.43;;;13.10;50.80;;;-142.21;69.47;112049.66;5052921;28;20474;-75
2022/04/08 04:32:51;;;;;;;4.27;1.73;;;13.10;50.90;;;-142.21;69.76;112049.66;5053190;28;20448;-74
2022/04/08 04:35:20;;;;;;;1.57;1.13;;;13.10;50.70;;;-142.21;69.95;112049.66;5053689;28;20447;-75
2022/04/08 04:37:47;;;;;;;4.40;2.13;;;13.10;51.00;;;-142.21;70.09;112049.66;5008485;28;20444;-75
2022/04/08 04:40:14;;;;;;;3.70;1.43;;;13.10;50.80;;;-142.21;69.16;112049.66;5055707;28;20857;-74
2022/04/08 04:42:41;;;;;;;2.63;1.40;;;13.10;50.60;;;-142.21;69.16;112049.66;5056751;28;20474;-74
2022/04/08 04:45:10;;;;;;;4.93;1.23;;;13.00;50.60;;;-142.21;70.07;112049.66;5052233;28;20534;-74
2022/04/08 04:47:38;;;;;;;3.37;1.47;;;13.10;50.90;;;-142.21;69.84;112049.66;5047754;28;20449;-75
2022/04/08 04:50:06;;;;;;;3.13;1.40;;;13.00;50.70;;;-142.21;71.59;112049.66;5053284;28;20448;-75
2022/04/08 04:52:35;;;;;;;4.47;1.50;;;13.00;51.10;;;-142.21;72.44;112049.66;5052113;28;20448;-75
2022/04/08 04:55:02;;;;;;;3.67;1.50;;;13.10;51.30;;;-142.21;70.72;112049.66;5050859;28;20536;-74
2022/04/08 04:57:29;;;;;;;1.80;1.30;;;13.10;51.00;;;-142.21;70.50;112049.66;5055363;28;20957;-74
2022/04/08 04:59:56;;;;;;;3.17;1.40;;;13.00;50.80;;;-142.21;72.19;112049.66;5044010;28;20535;-74
2022/04/08 05:02:23;;;;;;;3.50;1.10;;;12.90;51.00;;;-142.21;72.65;112049.66;5052512;28;20447;-75
2022/04/08 05:04:50;;;;;;;5.13;1.40;;;12.90;51.10;;;-142.21;71.95;112049.66;5055611;28;20562;-74
2022/04/08 05:07:18;;;;;;;2.60;1.17;;;13.00;51.00;;;-142.21;70.23;112049.66;5052351;28;20480;-74
2022/04/08 05:09:46;;;;;;;2.87;1.10;;;12.90;50.80;;;-142.21;71.08;112049.66;5061672;28;20546;-74
2022/04/08 05:12:13;;;;;;;4.47;1.50;;;12.90;51.10;;;-142.21;71.00;112049.66;5052510;28;20478;-73
2022/04/08 05:14:41;;;;;;;3.23;1.40;;;12.90;51.30;;;-142.21;70.65;112049.66;5064257;28;20535;-74
2022/04/08 05:17:08;;;;;;;2.10;1.30;;;12.90;51.20;;;-142.21;71.29;112049.66;5050999;28;20531;-75
2022/04/08 05:19:35;;;;;;;2.33;1.20;;;13.00;51.40;;;-142.21;71.99;112049.66;5051399;28;20479;-75
2022/04/08 05:22:02;;;;;;;3.60;1.23;;;13.00;51.30;;;-142.21;71.75;112049.66;5053925;28;20510;-75
2022/04/08 05:24:29;;;;;;;6.10;1.67;;;13.00;51.20;;;-142.21;71.67;112049.66;5050715;28;20531;-75
2022/04/08 05:26:57;;;;;;;5.37;1.50;;;13.00;51.30;;;-142.21;71.65;112049.66;5050494;28;20492;-73
2022/04/08 05:29:25;;;;;;;4.43;1.40;;;13.00;51.40;;;-142.21;72.70;112049.66;5048183;28;20455;-73
2022/04/08 05:31:52;;;;;;;4.80;1.53;;;12.90;51.50;;;-142.21;72.76;112049.66;5049924;28;20452;-74
2022/04/08 05:34:19;;;;;;;2.77;1.33;;;12.90;51.70;;;-142.21;72.54;112049.66;5052685;28;20448;-74
2022/04/08 05:36:46;;;;;;;2.77;1.40;;;13.00;51.80;;;-142.21;73.26;112049.66;5047165;28;20491;-74
2022/04/08 05:39:13;;;;;;;4.23;1.80;;;13.00;51.80;;;-142.21;72.92;112049.66;5052509;28;20451;-74
2022/04/08 05:41:41;;;;;;;2.10;1.40;;;13.00;51.70;;;-142.21;71.95;112049.66;5050941;28;20513;-74
2022/04/08 05:44:09;;;;;;;4.47;1.20;;;13.00;52.10;;;-142.21;73.01;112049.66;5052881;28;20895;-74
2022/04/08 05:46:37;;;;;;;2.87;1.27;;;13.10;51.70;;;-142.21;72.38;112049.66;5046747;28;20888;-75
2022/04/08 05:49:04;;;;;;;2.57;1.93;;;13.20;51.50;;;-142.21;72.19;112049.66;5051825;28;20458;-74
2022/04/08 05:51:31;;;;;;;3.87;1.57;;;13.20;51.50;;;-142.21;72.95;112049.66;5050534;28;20531;-74
2022/04/08 05:53:59;;;;;;;3.80;1.30;;;13.10;51.60;;;-142.21;73.34;112049.66;5049361;28;20453;-75
2022/04/08 05:56:26;;;;;;;4.10;1.53;;;13.10;51.70;;;-142.21;75.52;112049.66;5059543;28;20524;-74
2022/04/08 05:58:53;;;;;;;3.53;1.47;;;13.20;52.00;;;-142.21;76.24;112049.66;5053863;28;20452;-74
2022/04/08 06:01:22;;;;;;;4.10;1.40;;;13.20;52.00;;;-142.21;74.96;112049.66;5055854;28;20796;-74
2022/04/08 06:03:49;;;;;;;3.13;1.33;;;13.20;52.00;;;-142.21;73.91;112049.66;5056019;28;20867;-75
2022/04/08 06:06:16;;;;;;;3.93;1.67;;;13.30;51.90;;;-142.21;73.21;112049.66;5045964;28;20485;-75
2022/04/08 06:08:43;;;;;;;3.87;1.27;;;13.30;51.70;;;-142.21;72.87;112049.66;5052300;28;20460;-75
2022/04/08 06:11:10;;;;;;;3.53;1.50;;;13.30;51.60;;;-142.21;74.04;112049.66;5053742;28;20451;-76
2022/04/08 06:13:37;;;;;;;3.73;1.60;;;13.30;51.80;;;-142.21;73.63;112049.66;5054399;28;20450;-75
2022/04/08 06:16:05;;;;;;;3.70;1.37;;;13.40;51.60;;;-142.21;73.15;112049.66;5045861;28;20544;-75
2022/04/08 06:18:35;;;;;;;3.90;1.40;;;13.40;51.50;;;-142.21;73.44;112049.66;5045734;28;20826;-75
2022/04/08 06:21:04;;;;;;;4.40;1.50;;;13.40;51.60;;;-142.21;73.52;112049.66;5054331;28;20447;-74
2022/04/08 06:23:31;;;;;;;2.50;1.30;;;13.40;51.50;;;-142.21;74.30;112049.66;5048628;28;20957;-74
2022/04/08 06:25:58;;;;;;;2.47;1.30;;;13.50;51.70;;;-142.21;74.68;112049.66;5048511;28;20480;-74
2022/04/08 06:28:25;;;;;;;3.60;1.43;;;13.50;51.80;;;-142.21;76.87;112049.66;5055314;28;20527;-74
2022/04/08 06:30:52;;;;;;;1.43;1.03;;;13.50;52.30;;;-142.21;74.68;112049.66;5048245;28;20457;-74
2022/04/08 06:33:19;;;;;;;5.37;1.47;;;13.60;51.70;;;-142.21;72.99;112049.66;5051800;28;20440;-74
2022/04/08 06:35:48;;;;;;;5.77;1.27;;;13.50;51.10;;;-142.21;75.08;112049.66;5054131;28;20491;-75
2022/04/08 06:38:18;;;;;;;3.30;1.10;;;13.50;51.60;;;-142.21;71.90;112049.66;5052094;28;20528;-75
2022/04/08 06:40:45;;;;;;;3.83;1.40;;;13.50;51.10;;;-142.21;72.06;112049.66;5046495;28;21278;-74
2022/04/08 06:43:12;;;;;;;2.90;1.10;;;13.40;51.10;;;-142.21;71.60;112049.66;5045878;28;20510;-73
2022/04/08 06:45:39;;;;;;;3.23;1.30;;;13.40;51.00;;;-142.21;72.25;112049.66;5051592;28;20565;-74
2022/04/08 06:48:07;;;;;;;4.00;1.40;;;13.40;51.10;;;-142.21;73.62;112049.66;5054325;28;20940;-73
2022/04/08 06:50:35;;;;;;;1.53;1.00;;;13.40;51.50;;;-142.21;74.21;112049.66;5056036;28;20521;-73
2022/04/08 06:53:07;;;;;;;3.77;1.30;;;13.40;51.60;;;-142.21;72.66;112049.66;5052682;28;20444;-73
2022/04/08 06:55:34;;;;;;;4.37;1.17;;;13.20;51.00;;;-142.21;75.07;112049.66;5053700;28;20536;-73
2022/04/08 06:58:03;;;;;;;2.07;0.80;;;13.00;51.80;;;-142.21;75.60;112049.66;5053588;28;20458;-74
2022/04/08 07:00:32;;;;;;;2.30;1.30;;;12.90;52.10;;;-142.21;76.27;112049.66;5051882;28;20453;-75
2022/04/08 07:02:59;;;;;;;4.07;1.50;;;13.00;52.70;;;-142.21;74.28;112049.66;5056518;28;21025;-74
2022/04/08 07:05:28;;;;;;;2.90;1.10;;;13.00;51.90;;;-142.21;75.71;112049.66;5053992;28;20487;-74
2022/04/08 07:07:56;;;;;;;4.07;1.33;;;13.00;52.10;;;-142.21;78.38;112049.66;5053142;28;20480;-74
2022/04/08 07:10:25;;;;;;;1.53;1.03;;;13.10;52.40;;;-142.21;80.23;112049.66;5053321;28;20452;-73
2022/04/08 07:12:53;;;;;;;2.90;1.30;;;13.10;52.70;;;-142.21;82.11;112049.66;5055252;28;20530;-74
2022/04/08 07:15:20;;;;;;;1.47;1.10;;;13.10;53.00;;;-142.21;81.25;112049.66;5065369;28;20478;-74
2022/04/08 07:17:47;;;;;;;3.50;1.90;;;13.00;53.20;;;-142.21;84.90;112049.66;5059570;28;20451;-74
2022/04/08 07:20:15;;;;;;;1.83;1.00;;;12.70;53.60;;;-142.21;84.85;112049.66;5053051;28;20498;-74
2022/04/08 07:22:43;;;;;;;3.60;1.07;;;12.70;54.10;;;-142.21;87.44;112049.66;5053038;28;20452;-74
2022/04/08 07:25:12;;;;;;;3.70;1.50;;;12.70;54.70;;;-142.21;87.72;112049.66;5053593;28;20457;-73
2022/04/08 07:27:49;;;;;;;3.10;1.10;;;12.70;54.70;;;-142.21;89.83;112049.66;5071355;28;20483;-74
2022/04/08 07:30:19;;;;;;;2.37;0.93;;;12.60;55.10;;;-142.21;92.49;112049.66;5053902;28;21015;-73
2022/04/08 07:32:50;;;;;;;1.47;0.87;;;12.60;55.60;;;-142.21;92.24;112049.66;5054525;28;20531;-74
2022/04/08 07:35:17;;;;;;;3.67;1.13;;;12.60;56.00;;;-142.21;92.63;112049.66;5050063;28;20484;-74
2022/04/08 07:37:45;;;;;;;1.70;0.97;;;12.50;55.90;;;-142.21;96.64;112049.66;5054238;28;20535;-73
2022/04/08 07:40:14;;;;;;;1.83;1.00;;;12.50;56.40;;;-142.21;97.82;112049.66;5049220;28;20448;-73
2022/04/08 07:42:41;;;;;;;1.70;1.03;;;12.50;57.20;;;-142.21;98.40;112049.66;5061973;28;20463;-74
2022/04/08 07:45:11;;;;;;;3.40;1.00;;;12.50;57.70;;;-142.21;99.96;112049.66;5071134;28;20939;-74
2022/04/08 07:47:39;;;;;;;4.20;1.10;;;12.60;57.70;;;-142.21;100.00;112049.66;5053027;28;20587;-74
2022/04/08 07:50:10;;;;;;;1.57;0.90;;;12.50;57.90;;;-142.21;100.00;112049.66;5058510;28;20530;-74
2022/04/08 07:52:38;;;;;;;2.77;1.10;;;12.40;58.00;;;-142.21;100.00;112049.66;5067533;28;20451;-74
2022/04/08 07:55:07;;;;;;;3.63;0.93;;;12.40;59.10;;;-142.21;100.00;112049.66;5056250;28;20448;-74
2022/04/08 07:57:43;;;;;;;3.50;1.47;;;12.40;59.50;;;-142.21;100.00;112049.66;5051461;28;20444;-73
2022/04/08 08:00:14;;;;;;;1.87;1.20;;;12.40;60.00;;;-142.21;100.00;112049.66;5052015;28;20455;-73
2022/04/08 08:02:42;;;;;;;2.40;1.20;;;12.30;60.70;;;-142.21;100.00;112049.66;5052032;28;20982;-73
2022/04/08 08:05:10;;;;;;;2.93;1.20;;;12.30;62.30;;;-142.21;100.00;112049.66;5052184;28;20484;-73
2022/04/08 08:07:50;;;;;;;4.33;1.47;;;12.10;61.00;;;-142.21;100.00;112049.66;5070003;28;20545;-73
2022/04/08 08:10:19;;;;;;;1.20;1.10;;;12.10;64.00;;;-142.21;100.00;112049.66;5058975;28;20448;-73
2022/04/08 08:12:47;;;;;;;1.23;0.83;;;12.10;63.20;;;-142.21;100.00;112049.66;5042041;28;21017;-73
2022/04/08 08:15:18;;;;;;;3.03;0.93;;;12.10;63.40;;;-142.21;100.00;112049.66;5039933;28;20456;-73
2022/04/08 08:17:46;;;;;;;2.87;1.50;;;12.00;63.70;;;-142.21;100.00;112049.66;5041202;28;20449;-72
2022/04/08 08:20:16;;;;;;;1.67;1.30;;;12.00;64.20;;;-142.21;100.00;112049.66;5041500;28;20491;-72
2022/04/08 08:22:44;;;;;;;4.47;1.70;;;12.00;64.70;;;-142.21;100.00;112049.66;5048696;28;20456;-72
2022/04/08 08:25:12;;;;;;;3.27;1.37;;;12.00;64.70;;;-142.21;100.00;112049.66;5039828;28;20511;-72
2022/04/08 08:27:41;;;;;;;5.67;1.47;;;12.00;64.60;;;-142.21;100.00;112049.66;5042298;28;20582;-72
2022/04/08 08:30:13;;;;;;;1.47;1.13;;;12.00;65.20;;;-142.21;100.00;112049.66;5049409;28;20452;-72
2022/04/08 08:32:46;;;;;;;2.80;1.40;;;12.00;66.10;;;-142.21;100.00;112049.66;5046535;28;20510;-72
2022/04/08 08:35:17;;;;;;;2.80;1.37;;;12.10;66.00;;;-142.21;100.00;112049.66;5059826;28;20439;-72
2022/04/08 08:37:45;;;;;;;3.13;1.90;;;12.00;65.80;;;-142.21;100.00;112049.66;5047433;28;20445;-72
2022/04/08 08:40:14;;;;;;;4.03;2.10;;;12.00;66.50;;;-142.21;100.00;112049.66;5047805;28;20537;-72
2022/04/08 08:42:44;;;;;;;2.80;1.37;;;12.00;65.90;;;-142.21;100.00;112049.66;5052155;28;20460;-72
2022/04/08 08:45:14;;;;;;;3.93;1.80;;;12.00;67.70;;;-142.21;100.00;112049.66;5051615;28;20518;-72
2022/04/08 08:47:48;;;;;;;3.57;1.60;;;12.00;67.50;;;-142.21;100.00;112049.66;5039550;28;20580;-73
2022/04/08 08:50:18;;;;;;;3.67;1.50;;;12.00;67.20;;;-142.21;100.00;112049.66;5044328;28;20791;-73
2022/04/08 08:52:51;;;;;;;2.20;1.40;;;12.00;66.30;;;-142.21;100.00;112049.66;5043931;28;20452;-72
2022/04/08 08:55:19;;;;;;;2.57;1.50;;;12.00;66.70;;;-142.21;100.00;112049.66;5047014;28;20487;-75
2022/04/08 08:57:47;;;;;;;3.13;1.17;;;12.10;66.10;;;-142.21;100.00;112049.66;5049794;28;20456;-76
2022/04/08 09:00:18;;;;;;;2.93;1.30;;;12.20;65.80;;;-142.21;100.00;112049.66;5046629;28;20949;-74
2022/04/08 09:02:49;;;;;;;1.30;1.20;;;12.30;64.40;;;-142.21;100.00;112049.66;5040152;28;20559;-74
2022/04/08 09:05:20;;;;;;;2.70;1.00;;;12.40;65.30;;;-142.21;100.00;112049.66;5047843;28;20476;-74
2022/04/08 09:07:58;;;;;;;4.07;2.30;;;12.40;65.40;;;-142.21;100.00;112049.66;5048300;28;20472;-73
2022/04/08 09:10:27;;;;;;;4.17;1.87;;;12.30;65.20;;;-142.21;100.00;112049.66;5045730;28;20486;-74
2022/04/08 09:12:56;;;;;;;2.57;1.30;;;12.40;65.90;;;-142.21;100.00;112049.66;5036280;28;20543;-73
2022/04/08 09:15:24;;;;;;;2.30;1.27;;;12.30;65.40;;;-142.21;100.00;112049.66;5038606;28;20912;-73
2022/04/08 09:17:52;;;;;;;3.37;1.33;;;12.40;66.10;;;-142.21;100.00;112049.66;5042410;28;20826;-74
2022/04/08 09:20:20;;;;;;;1.47;1.30;;;12.40;65.90;;;-142.21;100.00;112049.66;5050673;28;20997;-73
2022/04/08 09:22:56;;;;;;;2.40;1.50;;;12.50;66.30;;;-142.21;100.00;112049.66;5051624;28;20494;-73
2022/04/08 09:25:29;;;;;;;1.57;1.30;;;12.50;66.40;;;-142.21;100.00;112049.66;5048484;28;20444;-74
2022/04/08 09:27:58;;;;;;;5.33;1.80;;;12.40;66.90;;;-142.21;100.00;112049.66;5050920;28;20476;-73
2022/04/08 09:30:26;;;;;;;1.30;1.20;;;12.50;66.60;;;-142.21;100.00;112049.66;5051330;28;20455;-73
2022/04/08 09:32:54;;;;;;;2.20;1.30;;;12.50;64.80;;;-142.21;100.00;112049.66;5054106;28;20847;-73
2022/04/08 09:35:24;;;;;;;3.57;1.30;;;12.40;65.60;;;-142.21;100.00;112049.66;5053737;28;20944;-73
2022/04/08 09:38:01;;;;;;;1.90;1.17;;;12.30;66.10;;;-142.21;100.00;112049.66;5054506;28;20448;-74
2022/04/08 09:40:37;;;;;;;2.57;0.90;;;12.20;63.80;;;-142.21;100.00;112049.66;5055057;28;20447;-74
2022/04/08 09:43:04;;;;;;;3.07;1.00;;;12.10;64.60;;;-142.21;100.00;112049.66;5055613;28;20443;-74
2022/04/08 09:45:32;;;;;;;2.77;1.00;;;12.10;65.30;;;-142.21;100.00;112049.66;5055228;28;20452;-74
2022/04/08 09:48:04;;;;;;;2.50;1.00;;;12.10;65.20;;;-142.21;100.00;112049.66;5054574;28;20574;-74
2022/04/08 09:50:31;;;;;;;2.03;1.17;;;12.10;66.10;;;-142.21;100.00;112049.66;5046456;28;20440;-74
2022/04/08 09:52:59;;;;;;;1.70;0.90;;;12.30;65.50;;;-142.21;100.00;112049.66;5053943;28;20527;-74
2022/04/08 09:55:30;;;;;;;1.93;1.40;;;12.30;65.50;;;-142.21;100.00;112049.66;5055193;28;20498;-75
2022/04/08 09:57:59;;;;;;;0.63;0.63;;;12.40;65.30;;;-142.21;100.00;112049.66;5054587;28;20505;-74
2022/04/08 10:00:28;;;;;;;3.10;0.90;;;12.40;65.20;;;-142.21;100.00;112049.66;5040163;28;20494;-73
2022/04/08 10:03:00;;;;;;;1.23;1.03;;;12.40;64.60;;;-142.21;100.00;112049.66;5050214;28;21158;-73